Time;durP1;ratioP1;P1;durP2;ratioP2;P2;SDS_P1;SDS_P2;PMS_P1;PMS_P2;Temp;Humidity;BMP_temperature;BMP_pressure;BME280_temperature;BME280_humidity;BME280_pressure;Samples;Min_cycle;Max_cycle;Signal;HPM_P1;HPM_P2
2022/03/30 00:02:13;;;;;;;5.03;2.63;;;5.90;99.90;;;;;;5039104;28;20465;-66
2022/03/30 00:04:43;;;;;;;7.88;1.77;;;5.90;99.90;;;;;;5038825;28;20359;-68
2022/03/30 00:07:10;;;;;;;9.50;1.70;;;5.80;99.90;;;;;;5038212;28;20197;-66
2022/03/30 00:09:38;;;;;;;3.00;2.28;;;5.80;99.90;;;;;;5038062;28;20205;-67
2022/03/30 00:12:07;;;;;;;4.90;2.03;;;5.90;99.90;;;;;;5038647;28;20424;-74
2022/03/30 00:14:36;;;;;;;4.50;2.15;;;5.90;99.90;;;;;;5038393;28;20208;-67
2022/03/30 00:17:04;;;;;;;6.75;2.30;;;5.90;99.90;;;;;;5029818;28;20260;-69
2022/03/30 00:19:32;;;;;;;8.93;2.10;;;5.80;99.90;;;;;;5018153;28;20306;-70
2022/03/30 00:22:01;;;;;;;9.80;1.50;;;5.80;99.90;;;;;;5033082;28;20436;-71
2022/03/30 00:24:29;;;;;;;3.90;2.00;;;5.80;99.90;;;;;;5038347;28;20280;-72
2022/03/30 00:26:57;;;;;;;6.18;1.95;;;5.80;99.90;;;;;;5038345;28;20322;-71
2022/03/30 00:29:25;;;;;;;5.80;2.20;;;5.70;99.90;;;;;;5038084;28;20198;-72
2022/03/30 00:31:53;;;;;;;8.07;2.70;;;5.70;99.90;;;;;;5038163;28;20230;-71
2022/03/30 00:34:21;;;;;;;8.48;2.42;;;5.70;99.90;;;;;;5037716;28;20567;-71
2022/03/30 00:36:49;;;;;;;3.03;1.52;;;5.60;99.90;;;;;;5019095;28;20236;-71
2022/03/30 00:39:18;;;;;;;4.10;1.45;;;5.60;99.90;;;;;;5020120;28;20202;-70
2022/03/30 00:41:46;;;;;;;6.93;1.77;;;5.60;99.90;;;;;;5021521;28;20294;-71
2022/03/30 00:44:15;;;;;;;4.25;2.35;;;5.50;99.90;;;;;;5021671;28;20202;-70
2022/03/30 00:46:45;;;;;;;6.05;1.75;;;5.50;99.90;;;;;;5021419;28;20562;-71
2022/03/30 00:49:13;;;;;;;6.70;2.53;;;5.50;99.90;;;;;;5020704;28;20255;-70
2022/03/30 00:51:43;;;;;;;6.25;2.30;;;5.50;99.90;;;;;;5021099;28;20554;-70
2022/03/30 00:54:11;;;;;;;9.02;1.45;;;5.50;99.90;;;;;;5040050;28;20414;-69
2022/03/30 00:56:42;;;;;;;8.85;2.30;;;5.40;99.90;;;;;;5041034;28;20197;-70
2022/03/30 00:59:11;;;;;;;2.10;1.90;;;5.50;99.90;;;;;;5041352;28;20201;-68
2022/03/30 01:01:39;;;;;;;5.95;1.83;;;5.40;99.90;;;;;;5042472;28;20348;-65
2022/03/30 01:04:08;;;;;;;5.05;1.95;;;5.50;99.90;;;;;;5041348;28;20209;-63
2022/03/30 01:06:36;;;;;;;5.22;2.00;;;5.50;99.90;;;;;;5041312;28;20597;-64
2022/03/30 01:09:03;;;;;;;10.40;2.03;;;5.50;99.90;;;;;;5041780;28;20212;-64
2022/03/30 01:11:32;;;;;;;4.97;2.13;;;5.50;99.90;;;;;;5041499;28;20221;-64
2022/03/30 01:14:01;;;;;;;7.55;2.10;;;5.50;99.90;;;;;;5041322;28;20331;-69
2022/03/30 01:16:32;;;;;;;10.10;2.58;;;5.60;99.90;;;;;;5040913;28;20572;-71
2022/03/30 01:19:07;;;;;;;3.70;1.60;;;5.60;99.90;;;;;;5040998;28;20280;-70
2022/03/30 01:21:38;;;;;;;8.45;2.05;;;5.60;99.90;;;;;;5040907;28;20221;-70
2022/03/30 01:24:08;;;;;;;7.47;3.00;;;5.70;99.90;;;;;;5040079;28;20220;-68
2022/03/30 01:26:36;;;;;;;6.75;2.40;;;5.60;99.90;;;;;;5040753;28;20217;-68
2022/03/30 01:32:24;;;;;;;3.50;1.60;;;5.60;99.90;;;;;;5040235;28;20212;-70
2022/03/30 01:34:41;;;;;;;2.45;1.70;;;5.50;99.90;;;;;;5029327;28;20280;-69
2022/03/30 01:37:12;;;;;;;2.95;1.40;;;5.50;99.90;;;;;;5020822;28;20338;-69
2022/03/30 01:39:40;;;;;;;8.18;2.20;;;5.50;99.90;;;;;;5019973;28;20445;-70
2022/03/30 01:42:09;;;;;;;7.30;2.28;;;5.50;99.90;;;;;;5020489;28;20701;-70
2022/03/30 01:44:38;;;;;;;5.60;1.55;;;5.50;99.90;;;;;;5020524;28;20598;-70
2022/03/30 01:47:07;;;;;;;3.28;2.65;;;5.50;99.90;;;;;;5020348;28;20240;-69
2022/03/30 01:49:35;;;;;;;10.23;1.90;;;5.60;99.90;;;;;;5019148;28;20283;-70
2022/03/30 01:52:04;;;;;;;8.00;2.67;;;5.50;99.90;;;;;;5019732;28;20692;-69
2022/03/30 01:54:36;;;;;;;4.13;1.67;;;5.60;99.90;;;;;;5019970;28;20582;-70
2022/03/30 01:57:06;;;;;;;7.97;2.67;;;5.60;99.90;;;;;;5019807;28;20365;-69
2022/03/30 01:59:34;;;;;;;8.50;2.45;;;5.60;99.90;;;;;;5019889;28;20199;-69
2022/03/30 02:02:03;;;;;;;8.73;2.67;;;5.60;99.90;;;;;;5022722;28;20693;-70
2022/03/30 02:04:31;;;;;;;4.18;1.75;;;5.60;99.90;;;;;;5022427;28;20289;-70
2022/03/30 02:07:01;;;;;;;5.88;1.65;;;5.50;99.90;;;;;;5019888;28;20230;-70
2022/03/30 02:09:29;;;;;;;3.47;1.80;;;5.50;99.90;;;;;;5035681;28;20335;-68
2022/03/30 02:11:59;;;;;;;7.07;2.33;;;5.60;99.90;;;;;;5040401;28;20208;-67
2022/03/30 02:14:27;;;;;;;6.65;2.40;;;5.60;99.90;;;;;;5040510;28;20205;-69
2022/03/30 02:16:55;;;;;;;2.15;1.65;;;5.60;99.90;;;;;;5040890;28;20257;-69
2022/03/30 02:19:23;;;;;;;6.35;2.65;;;5.50;99.90;;;;;;5024774;28;20210;-68
2022/03/30 02:21:51;;;;;;;6.30;2.00;;;5.60;99.90;;;;;;5020172;28;20230;-68
2022/03/30 02:24:19;;;;;;;7.15;2.22;;;5.60;99.90;;;;;;5019878;28;20214;-68
2022/03/30 02:26:47;;;;;;;6.40;2.15;;;5.60;99.90;;;;;;5020013;28;20836;-68
2022/03/30 02:29:17;;;;;;;4.90;2.03;;;5.50;99.90;;;;;;5020216;28;20217;-68
2022/03/30 02:31:45;;;;;;;4.85;2.03;;;5.50;99.90;;;;;;5020345;28;20260;-69
2022/03/30 02:34:13;;;;;;;7.80;3.00;;;5.50;99.90;;;;;;5020624;28;20230;-69
2022/03/30 02:36:43;;;;;;;10.25;2.08;;;5.50;99.90;;;;;;5020587;28;20225;-70
2022/03/30 02:39:11;;;;;;;5.78;2.17;;;5.50;99.90;;;;;;5020187;28;20216;-71
2022/03/30 02:41:39;;;;;;;2.95;1.67;;;5.50;99.90;;;;;;5020646;28;20475;-71
2022/03/30 02:44:08;;;;;;;4.13;2.35;;;5.50;99.90;;;;;;5035414;28;20220;-70
2022/03/30 02:46:37;;;;;;;4.97;2.00;;;5.50;99.90;;;;;;5039469;28;20336;-70
2022/03/30 02:49:05;;;;;;;3.83;1.80;;;5.50;99.90;;;;;;5039694;28;20210;-69
2022/03/30 02:51:33;;;;;;;5.05;1.77;;;5.50;99.90;;;;;;5050710;28;20452;-70
2022/03/30 02:54:01;;;;;;;5.47;1.60;;;5.50;99.90;;;;;;5042089;28;20202;-69
2022/03/30 02:56:29;;;;;;;9.07;2.50;;;5.50;99.90;;;;;;5040119;28;20233;-69
2022/03/30 02:58:56;;;;;;;7.13;1.52;;;5.50;99.90;;;;;;5041084;28;20213;-70
2022/03/30 03:01:24;;;;;;;4.45;1.75;;;5.50;99.90;;;;;;5039361;28;20296;-69
2022/03/30 03:03:53;;;;;;;5.40;2.15;;;5.50;99.90;;;;;;5039549;28;20685;-69
2022/03/30 03:06:21;;;;;;;7.57;2.10;;;5.50;99.90;;;;;;5039139;28;20237;-69
2022/03/30 03:08:49;;;;;;;6.53;2.28;;;5.50;99.90;;;;;;5038312;28;20304;-69
2022/03/30 03:11:17;;;;;;;3.50;1.70;;;5.50;99.90;;;;;;5038615;28;20225;-69
2022/03/30 03:13:45;;;;;;;6.22;2.10;;;5.50;99.90;;;;;;5039192;28;20288;-70
2022/03/30 03:16:13;;;;;;;3.95;1.35;;;5.50;99.90;;;;;;5038864;28;20194;-70
2022/03/30 03:18:41;;;;;;;4.30;1.92;;;5.60;99.90;;;;;;5038731;28;20717;-70
2022/03/30 03:21:11;;;;;;;8.70;2.40;;;5.60;99.90;;;;;;5038178;28;20233;-70
2022/03/30 03:23:41;;;;;;;2.90;1.50;;;5.60;99.90;;;;;;5038864;28;20653;-70
2022/03/30 03:26:09;;;;;;;2.22;1.63;;;5.50;99.90;;;;;;5038742;28;20217;-70
2022/03/30 03:28:37;;;;;;;7.22;1.67;;;5.50;99.90;;;;;;5038406;28;20519;-72
2022/03/30 03:31:05;;;;;;;4.22;1.17;;;5.50;99.90;;;;;;5038450;28;20451;-70
2022/03/30 03:33:33;;;;;;;2.15;1.00;;;5.40;99.90;;;;;;5038536;28;20206;-69
2022/03/30 03:36:01;;;;;;;5.30;1.40;;;5.40;99.90;;;;;;5038339;28;20209;-70
2022/03/30 03:38:30;;;;;;;3.50;1.33;;;5.40;99.90;;;;;;5039574;28;20205;-70
2022/03/30 03:40:58;;;;;;;6.13;1.70;;;5.40;99.90;;;;;;5038341;28;20295;-71
2022/03/30 03:43:26;;;;;;;2.78;1.27;;;5.40;99.90;;;;;;5038119;28;20209;-71
2022/03/30 03:45:53;;;;;;;3.65;1.40;;;5.40;99.90;;;;;;5038263;28;20206;-70
2022/03/30 03:48:21;;;;;;;2.67;1.05;;;5.40;99.90;;;;;;5038022;28;20731;-70
2022/03/30 03:50:49;;;;;;;7.03;1.27;;;5.40;99.90;;;;;;5037857;28;20721;-70
2022/03/30 03:53:17;;;;;;;7.03;2.00;;;5.40;99.90;;;;;;5038216;28;20202;-71
2022/03/30 03:55:46;;;;;;;6.88;1.30;;;5.50;99.90;;;;;;5038460;28;20206;-71
2022/03/30 03:58:14;;;;;;;3.15;1.95;;;5.40;99.90;;;;;;5037963;28;20716;-70
2022/03/30 04:00:42;;;;;;;9.80;1.90;;;5.50;99.90;;;;;;5038086;28;20320;-70
2022/03/30 04:03:10;;;;;;;7.97;1.42;;;5.40;99.90;;;;;;5038094;28;20210;-68
2022/03/30 04:05:40;;;;;;;7.38;1.60;;;5.40;99.90;;;;;;5037691;28;20201;-69
2022/03/30 04:08:10;;;;;;;6.40;2.15;;;5.40;99.90;;;;;;5037652;28;20794;-69
2022/03/30 04:10:39;;;;;;;4.80;1.40;;;5.40;99.90;;;;;;5038016;28;20356;-69
2022/03/30 04:13:09;;;;;;;5.85;2.45;;;5.40;99.90;;;;;;5038305;28;20197;-70
2022/03/30 04:15:38;;;;;;;6.93;1.27;;;5.40;99.90;;;;;;5042040;28;20614;-71
2022/03/30 04:18:08;;;;;;;5.63;1.70;;;5.40;99.90;;;;;;5041817;28;20224;-72
2022/03/30 04:20:37;;;;;;;3.08;1.00;;;5.40;99.90;;;;;;5042406;28;20264;-73
2022/03/30 04:23:05;;;;;;;2.50;1.10;;;5.30;99.90;;;;;;5041975;28;20224;-71
2022/03/30 04:25:33;;;;;;;4.10;1.55;;;5.30;99.90;;;;;;5041939;28;20209;-71
2022/03/30 04:28:01;;;;;;;4.65;1.40;;;5.30;99.90;;;;;;5041687;28;20281;-70
2022/03/30 04:30:31;;;;;;;8.65;2.10;;;5.40;99.90;;;;;;5041784;28;20308;-71
2022/03/30 04:32:59;;;;;;;3.88;1.48;;;5.30;99.90;;;;;;5041155;28;20206;-71
2022/03/30 04:35:27;;;;;;;3.53;1.60;;;5.30;99.90;;;;;;5042205;28;20456;-71
2022/03/30 04:37:56;;;;;;;4.18;2.40;;;5.40;99.90;;;;;;5041082;28;20214;-71
2022/03/30 04:40:25;;;;;;;9.48;1.58;;;5.30;99.90;;;;;;5047338;28;20222;-70
2022/03/30 04:42:54;;;;;;;9.77;2.38;;;5.30;99.90;;;;;;5047860;28;20212;-70
2022/03/30 04:45:22;;;;;;;4.53;1.45;;;5.30;99.90;;;;;;5047920;28;20692;-69
2022/03/30 04:47:53;;;;;;;7.40;2.30;;;5.30;99.90;;;;;;5050839;28;20224;-69
2022/03/30 04:50:26;;;;;;;2.70;1.35;;;5.20;99.90;;;;;;5049044;28;20312;-69
2022/03/30 04:52:55;;;;;;;3.03;1.50;;;5.10;99.90;;;;;;5044019;28;20206;-69
2022/03/30 04:55:22;;;;;;;2.58;1.73;;;5.10;99.90;;;;;;5041083;28;20202;-69
2022/03/30 04:57:50;;;;;;;6.18;1.90;;;5.20;99.90;;;;;;5041317;28;21078;-69
2022/03/30 05:00:18;;;;;;;13.10;1.90;;;5.20;99.90;;;;;;5041239;28;20232;-68
2022/03/30 05:02:46;;;;;;;1.45;1.35;;;5.10;99.90;;;;;;5041342;28;20194;-68
2022/03/30 05:05:16;;;;;;;1.95;1.35;;;5.00;99.90;;;;;;5041390;28;20435;-69
2022/03/30 05:07:43;;;;;;;3.83;1.52;;;4.90;99.90;;;;;;5040535;28;20750;-68
2022/03/30 05:10:13;;;;;;;5.65;1.45;;;4.80;99.90;;;;;;5041379;28;20320;-69
2022/03/30 05:12:42;;;;;;;4.82;1.50;;;4.80;99.90;;;;;;5041391;28;20301;-69
2022/03/30 05:15:11;;;;;;;3.50;1.27;;;4.80;99.90;;;;;;5040937;28;20477;-67
2022/03/30 05:17:40;;;;;;;3.35;1.60;;;4.80;99.90;;;;;;5040884;28;20790;-66
2022/03/30 05:20:09;;;;;;;9.93;1.60;;;4.80;99.90;;;;;;5040730;28;20289;-67
2022/03/30 05:22:38;;;;;;;4.50;1.50;;;4.70;99.90;;;;;;5038411;28;20287;-66
2022/03/30 05:25:08;;;;;;;3.35;1.50;;;4.80;99.90;;;;;;5039977;28;20209;-66
2022/03/30 05:27:38;;;;;;;2.63;1.40;;;4.90;99.90;;;;;;5040963;28;20214;-71
2022/03/30 05:30:07;;;;;;;4.47;1.60;;;4.80;99.90;;;;;;5040650;28;20445;-64
2022/03/30 05:32:35;;;;;;;2.40;1.45;;;4.90;99.90;;;;;;5041134;28;20209;-63
2022/03/30 05:35:03;;;;;;;2.17;1.30;;;4.90;99.90;;;;;;5040408;28;20505;-63
2022/03/30 05:37:32;;;;;;;4.30;1.65;;;4.90;99.90;;;;;;5040870;28;20225;-71
2022/03/30 05:40:01;;;;;;;6.60;4.05;;;4.90;99.90;;;;;;5041240;28;20553;-69
2022/03/30 05:42:29;;;;;;;4.22;1.92;;;5.00;99.90;;;;;;5034757;28;20777;-68
2022/03/30 05:44:57;;;;;;;4.20;2.17;;;5.00;99.90;;;;;;5032510;28;20831;-67
2022/03/30 05:47:26;;;;;;;5.82;1.70;;;5.00;99.90;;;;;;5032824;28;20236;-67
2022/03/30 05:49:53;;;;;;;4.13;1.55;;;5.00;99.90;;;;;;5020180;28;20309;-69
2022/03/30 05:52:21;;;;;;;2.95;1.80;;;5.10;99.90;;;;;;5022308;28;20205;-69
2022/03/30 05:54:49;;;;;;;5.00;1.75;;;5.40;99.90;;;;;;5022142;28;20206;-69
2022/03/30 05:57:21;;;;;;;7.97;2.67;;;5.60;99.90;;;;;;5022053;28;20246;-71
2022/03/30 05:59:49;;;;;;;12.07;3.70;;;5.80;99.90;;;;;;5026334;28;20300;-69
2022/03/30 06:02:17;;;;;;;6.55;2.15;;;6.00;99.90;;;;;;5028830;28;20309;-68
2022/03/30 06:04:46;;;;;;;4.63;1.75;;;6.20;99.90;;;;;;5030184;28;20353;-69
2022/03/30 06:07:15;;;;;;;4.65;2.30;;;6.30;99.90;;;;;;5043304;28;20269;-68
2022/03/30 06:09:42;;;;;;;14.68;2.80;;;6.40;99.90;;;;;;5048472;28;20198;-68
2022/03/30 06:12:16;;;;;;;4.63;1.80;;;6.40;99.90;;;;;;5025432;28;20211;-68
2022/03/30 06:14:46;;;;;;;2.17;1.05;;;6.50;99.90;;;;;;5038455;28;20193;-68
2022/03/30 06:17:20;;;;;;;1.95;1.02;;;6.40;99.90;;;;;;5035702;28;20213;-68
2022/03/30 06:19:49;;;;;;;4.65;1.52;;;6.30;99.90;;;;;;5031399;28;20198;-68
2022/03/30 06:22:18;;;;;;;2.58;1.35;;;6.20;99.90;;;;;;5030442;28;20206;-66
2022/03/30 06:24:47;;;;;;;1.20;1.10;;;6.00;99.90;;;;;;5020430;28;20261;-68
2022/03/30 06:27:17;;;;;;;4.05;1.50;;;5.90;99.90;;;;;;5029260;28;20203;-67
2022/03/30 06:29:46;;;;;;;2.38;1.15;;;5.90;99.90;;;;;;5021737;28;20222;-68
2022/03/30 06:32:18;;;;;;;1.10;1.10;;;5.80;99.90;;;;;;5031880;28;20593;-63
2022/03/30 06:34:49;;;;;;;2.60;0.85;;;5.80;99.90;;;;;;5028818;28;20361;-63
2022/03/30 06:37:17;;;;;;;4.78;1.88;;;5.70;99.90;;;;;;5037706;28;20205;-63
2022/03/30 06:39:45;;;;;;;1.20;0.98;;;5.60;99.90;;;;;;5038954;28;20214;-64
2022/03/30 06:42:13;;;;;;;4.80;1.48;;;5.50;99.90;;;;;;5044312;28;20214;-63
2022/03/30 06:44:41;;;;;;;5.40;1.33;;;5.50;99.90;;;;;;5037367;28;20753;-63
2022/03/30 06:47:11;;;;;;;1.17;1.05;;;5.40;99.90;;;;;;5039549;28;20277;-63
2022/03/30 06:49:39;;;;;;;2.50;2.15;;;5.50;99.90;;;;;;5038123;28;20491;-64
2022/03/30 06:52:09;;;;;;;1.48;1.00;;;5.50;99.90;;;;;;5039395;28;20265;-64
2022/03/30 06:54:39;;;;;;;3.47;0.90;;;5.50;99.90;;;;;;5038761;28;20831;-69
2022/03/30 06:57:08;;;;;;;3.05;1.02;;;5.50;99.90;;;;;;5038968;28;20207;-62
2022/03/30 06:59:35;;;;;;;2.88;0.90;;;5.50;99.90;;;;;;5037378;28;20799;-62
2022/03/30 07:02:04;;;;;;;2.47;0.73;;;5.60;99.90;;;;;;5025457;28;20337;-62
2022/03/30 07:04:35;;;;;;;1.58;0.88;;;5.60;99.90;;;;;;5021090;28;20285;-63
2022/03/30 07:12:35;;;;;;;4.25;1.42;;;5.70;99.90;;;;;;5040512;28;20478;-63
2022/03/30 07:15:04;;;;;;;6.20;1.13;;;5.80;99.90;;;;;;5023238;28;20784;-63
2022/03/30 07:17:33;;;;;;;0.73;0.73;;;5.80;99.90;;;;;;5020843;28;20287;-63
2022/03/30 07:20:02;;;;;;;6.28;1.65;;;5.90;99.90;;;;;;5019630;28;20226;-65
2022/03/30 07:22:30;;;;;;;3.55;1.83;;;6.00;99.90;;;;;;5028905;28;20847;-66
2022/03/30 07:24:58;;;;;;;4.40;1.10;;;6.00;99.90;;;;;;5053787;28;20209;-64
2022/03/30 07:27:26;;;;;;;3.03;1.73;;;6.00;99.90;;;;;;5050111;28;20446;-63
2022/03/30 07:29:53;;;;;;;4.00;1.48;;;6.10;99.90;;;;;;5044710;28;20295;-63
2022/03/30 07:32:23;;;;;;;5.30;1.55;;;6.10;99.90;;;;;;5047133;28;20621;-63
2022/03/30 07:34:53;;;;;;;2.10;1.20;;;6.20;99.90;;;;;;5047852;28;20553;-63
2022/03/30 07:37:22;;;;;;;6.70;1.70;;;6.20;99.90;;;;;;5043706;28;20216;-63
2022/03/30 07:39:51;;;;;;;2.80;1.65;;;6.30;99.90;;;;;;5041075;28;20232;-62
2022/03/30 07:42:19;;;;;;;4.63;1.70;;;6.40;99.90;;;;;;5039125;28;20201;-63
2022/03/30 07:44:48;;;;;;;3.63;1.30;;;6.40;99.90;;;;;;5039432;28;20820;-63
2022/03/30 07:47:17;;;;;;;4.85;1.63;;;6.50;99.90;;;;;;5028811;28;20198;-62
2022/03/30 07:49:49;;;;;;;1.40;1.30;;;6.60;99.90;;;;;;5021370;28;20234;-63
2022/03/30 07:52:20;;;;;;;1.83;1.30;;;6.60;99.90;;;;;;5023046;28;20206;-63
2022/03/30 07:54:52;;;;;;;2.05;1.20;;;6.70;99.90;;;;;;5033830;28;20717;-62
2022/03/30 07:57:25;;;;;;;4.68;1.50;;;6.70;99.90;;;;;;5038522;28;20209;-63
2022/03/30 07:59:54;;;;;;;4.90;2.28;;;6.70;99.90;;;;;;5040104;28;20213;-64
2022/03/30 08:02:23;;;;;;;5.80;1.90;;;6.70;99.90;;;;;;5037662;28;20278;-62
2022/03/30 08:04:51;;;;;;;5.13;1.70;;;6.80;99.90;;;;;;5037364;28;20734;-62
2022/03/30 08:07:22;;;;;;;3.10;2.72;;;6.80;99.90;;;;;;5038311;28;20248;-64
2022/03/30 08:09:51;;;;;;;3.45;1.70;;;6.80;99.90;;;;;;5038841;28;20304;-64
2022/03/30 08:12:20;;;;;;;5.22;1.65;;;6.80;99.90;;;;;;5038916;28;20765;-64
2022/03/30 08:14:48;;;;;;;1.88;1.77;;;6.90;99.90;;;;;;5038424;28;20666;-64
2022/03/30 08:17:17;;;;;;;4.00;1.58;;;6.90;99.90;;;;;;5038660;28;20202;-64
2022/03/30 08:19:45;;;;;;;2.28;1.70;;;7.00;99.90;;;;;;5038748;28;20198;-64
2022/03/30 08:22:28;;;;;;;2.22;1.60;;;7.00;99.90;;;;;;5038607;28;20692;-64
2022/03/30 08:25:00;;;;;;;1.92;1.40;;;7.10;99.90;;;;;;5038357;28;20216;-64
2022/03/30 08:27:30;;;;;;;1.67;1.40;;;7.20;99.90;;;;;;5037736;28;20587;-64
2022/03/30 08:29:59;;;;;;;3.33;1.45;;;7.20;99.90;;;;;;5038038;28;20261;-64
2022/03/30 08:32:28;;;;;;;3.00;2.08;;;7.20;99.90;;;;;;5038284;28;20211;-64
2022/03/30 08:34:56;;;;;;;5.63;1.90;;;7.20;99.90;;;;;;5037663;28;20300;-62
2022/03/30 08:37:25;;;;;;;2.90;1.95;;;7.20;99.90;;;;;;5037763;28;20244;-64
2022/03/30 08:39:54;;;;;;;6.70;2.25;;;7.30;99.90;;;;;;5038768;28;20221;-64
2022/03/30 08:42:23;;;;;;;2.95;2.50;;;7.30;99.90;;;;;;5037544;28;20201;-64
2022/03/30 08:44:51;;;;;;;3.30;1.85;;;7.40;99.90;;;;;;5037448;28;20206;-63
2022/03/30 08:47:20;;;;;;;3.70;2.10;;;7.30;99.90;;;;;;5037393;28;20232;-63
2022/03/30 08:49:50;;;;;;;2.25;2.05;;;7.30;99.90;;;;;;5037588;28;20642;-63
2022/03/30 08:52:19;;;;;;;2.30;1.70;;;7.20;99.90;;;;;;5037895;28;20289;-64
2022/03/30 08:54:51;;;;;;;3.25;2.00;;;7.20;99.90;;;;;;5037690;28;20210;-64
2022/03/30 08:57:19;;;;;;;2.58;1.50;;;7.30;99.90;;;;;;5037607;28;20206;-64
2022/03/30 09:00:03;;;;;;;2.20;1.48;;;7.30;99.90;;;;;;5039238;28;20224;-64
2022/03/30 09:02:36;;;;;;;7.38;2.00;;;7.30;99.90;;;;;;5041613;28;20202;-64
2022/03/30 09:05:16;;;;;;;2.80;1.60;;;7.30;99.90;;;;;;5041259;28;20206;-64
2022/03/30 09:07:48;;;;;;;3.97;2.30;;;7.40;99.90;;;;;;5039324;28;20232;-68
2022/03/30 09:10:19;;;;;;;4.00;2.58;;;7.30;99.90;;;;;;5041010;28;20257;-65
2022/03/30 09:12:50;;;;;;;2.70;1.75;;;7.30;99.90;;;;;;5040481;28;20237;-65
2022/03/30 09:15:21;;;;;;;4.05;2.40;;;7.40;99.90;;;;;;5041350;28;20205;-66
2022/03/30 09:17:58;;;;;;;3.53;1.70;;;7.30;99.90;;;;;;5027837;28;20449;-65
2022/03/30 09:20:35;;;;;;;2.00;1.90;;;7.40;99.90;;;;;;5040864;28;20305;-65
2022/03/30 09:23:04;;;;;;;2.97;2.70;;;7.30;99.90;;;;;;5040576;28;20649;-65
2022/03/30 09:25:50;;;;;;;3.05;2.15;;;7.40;99.90;;;;;;5038407;28;20292;-65
2022/03/30 09:28:21;;;;;;;1.75;1.65;;;7.40;99.90;;;;;;5039405;28;20221;-66
2022/03/30 09:30:51;;;;;;;5.30;2.50;;;7.40;99.90;;;;;;5039826;28;20312;-65
2022/03/30 09:33:21;;;;;;;5.43;1.80;;;7.50;99.90;;;;;;5038818;28;20658;-65
2022/03/30 09:35:49;;;;;;;2.88;1.67;;;7.40;99.90;;;;;;5040362;28;20684;-66
2022/03/30 09:38:18;;;;;;;1.70;1.33;;;7.40;99.90;;;;;;5040472;28;20194;-66
2022/03/30 09:40:48;;;;;;;4.10;1.70;;;7.30;99.90;;;;;;5039964;28;20351;-66
2022/03/30 09:43:22;;;;;;;1.40;1.40;;;7.30;99.90;;;;;;5040533;28;21295;-65
2022/03/30 09:46:04;;;;;;;2.65;1.67;;;7.30;99.90;;;;;;5039086;28;20205;-66
2022/03/30 09:48:34;;;;;;;2.60;1.85;;;7.20;99.90;;;;;;5041477;28;20297;-66
2022/03/30 09:51:06;;;;;;;2.92;1.83;;;7.30;99.90;;;;;;5040702;28;20275;-64
2022/03/30 09:53:36;;;;;;;2.00;1.40;;;7.30;99.90;;;;;;5043399;28;20202;-66
2022/03/30 09:56:06;;;;;;;1.88;1.35;;;7.40;99.90;;;;;;5049697;28;20205;-65
2022/03/30 09:58:35;;;;;;;2.90;1.67;;;7.40;99.90;;;;;;5051776;28;20228;-66
2022/03/30 10:01:10;;;;;;;2.40;2.30;;;7.50;99.90;;;;;;5049138;28;20859;-65
2022/03/30 10:03:42;;;;;;;4.85;2.92;;;7.50;99.90;;;;;;5049965;28;20217;-66
2022/03/30 10:06:12;;;;;;;2.28;1.83;;;7.70;99.90;;;;;;5050347;28;20212;-66
2022/03/30 10:08:42;;;;;;;2.17;1.30;;;7.70;99.90;;;;;;5044130;28;20892;-66
2022/03/30 10:11:12;;;;;;;2.20;1.70;;;7.70;99.90;;;;;;5039989;28;20491;-66
2022/03/30 10:13:41;;;;;;;2.03;1.80;;;7.90;99.90;;;;;;5042524;28;20692;-66
2022/03/30 10:16:30;;;;;;;2.25;1.77;;;8.00;99.90;;;;;;5041931;28;20231;-66
2022/03/30 10:18:58;;;;;;;4.55;2.58;;;8.10;99.90;;;;;;5042414;28;20202;-66
2022/03/30 10:21:31;;;;;;;2.08;1.80;;;8.20;99.90;;;;;;5041550;28;20249;-66
2022/03/30 10:24:31;;;;;;;1.92;1.52;;;8.30;99.90;;;;;;5041076;28;20260;-65
2022/03/30 10:27:12;;;;;;;1.67;1.58;;;8.40;99.90;;;;;;5041748;28;20237;-65
2022/03/30 10:29:49;;;;;;;3.70;2.00;;;8.50;99.90;;;;;;5040453;28;20483;-66
2022/03/30 10:32:22;;;;;;;2.65;1.60;;;8.50;99.90;;;;;;5041139;28;20202;-66
2022/03/30 10:35:01;;;;;;;1.75;1.65;;;8.50;99.90;;;;;;5040269;28;20201;-66
2022/03/30 10:37:31;;;;;;;1.83;1.50;;;8.60;99.90;;;;;;5040550;28;20550;-67
2022/03/30 10:40:08;;;;;;;2.35;1.48;;;8.60;99.90;;;;;;5039991;28;20312;-67
2022/03/30 10:42:59;;;;;;;4.15;1.23;;;8.70;99.90;;;;;;5039806;28;20296;-67
2022/03/30 10:45:33;;;;;;;2.15;1.20;;;8.60;99.90;;;;;;5040072;28;20414;-65
2022/03/30 10:48:21;;;;;;;2.53;1.17;;;8.60;99.90;;;;;;5040160;28;20678;-66
2022/03/30 10:50:52;;;;;;;3.20;1.40;;;8.50;99.90;;;;;;5039148;28;20236;-64
2022/03/30 10:53:42;;;;;;;1.70;1.60;;;8.60;99.90;;;;;;5040021;28;20275;-65
2022/03/30 10:56:36;;;;;;;2.00;1.42;;;8.60;99.90;;;;;;5037065;28;20217;-66
2022/03/30 10:59:09;;;;;;;3.70;1.60;;;8.60;99.90;;;;;;5021323;28;20214;-65
2022/03/30 11:01:41;;;;;;;1.40;1.30;;;8.70;99.90;;;;;;5040407;28;20484;-66
2022/03/30 11:04:27;;;;;;;1.83;1.50;;;8.70;99.90;;;;;;5040399;28;20313;-66
2022/03/30 11:07:38;;;;;;;2.15;1.17;;;8.80;99.90;;;;;;5039786;28;20198;-66
2022/03/30 11:10:23;;;;;;;1.65;1.55;;;8.80;99.90;;;;;;5040017;28;20236;-66
2022/03/30 11:13:12;;;;;;;3.70;1.70;;;8.90;99.90;;;;;;5040168;28;20233;-65
2022/03/30 11:16:11;;;;;;;6.18;1.63;;;8.90;99.90;;;;;;5037401;28;20205;-66
2022/03/30 11:19:00;;;;;;;3.13;1.48;;;9.10;99.90;;;;;;5039008;28;20206;-72
2022/03/30 11:21:30;;;;;;;1.95;1.25;;;9.20;99.90;;;;;;5039180;28;20305;-72
2022/03/30 11:24:20;;;;;;;1.60;1.30;;;9.20;99.90;;;;;;5038497;28;20288;-72
2022/03/30 11:27:23;;;;;;;1.38;1.27;;;9.30;99.90;;;;;;5039365;28;20228;-72
2022/03/30 11:30:00;;;;;;;1.65;1.52;;;9.40;99.90;;;;;;5037133;28;20399;-72
2022/03/30 11:32:44;;;;;;;2.50;1.70;;;9.40;99.90;;;;;;5040308;28;20613;-71
2022/03/30 11:35:13;;;;;;;2.58;1.33;;;9.50;99.90;;;;;;5040769;28;20309;-70
2022/03/30 11:37:44;;;;;;;3.03;1.60;;;9.60;99.90;;;;;;5038868;28;20296;-71
2022/03/30 11:40:15;;;;;;;4.88;1.60;;;9.60;99.90;;;;;;5038969;28;20352;-70
2022/03/30 11:42:51;;;;;;;3.60;1.40;;;9.60;99.90;;;;;;5038644;28;20205;-69
2022/03/30 11:45:21;;;;;;;2.67;2.05;;;9.70;99.90;;;;;;5038656;28;20206;-68
2022/03/30 11:47:59;;;;;;;1.38;1.33;;;9.60;99.90;;;;;;5038488;28;20209;-68
2022/03/30 11:50:29;;;;;;;2.05;1.70;;;9.60;99.90;;;;;;5037679;28;20229;-70
2022/03/30 11:53:00;;;;;;;1.98;1.30;;;9.60;99.90;;;;;;5028850;28;20451;-70
2022/03/30 11:55:30;;;;;;;4.40;1.65;;;9.50;99.90;;;;;;5036845;28;20225;-70
2022/03/30 11:58:00;;;;;;;4.80;1.77;;;9.40;99.90;;;;;;5038262;28;20288;-70
2022/03/30 12:00:29;;;;;;;1.80;1.20;;;9.40;99.90;;;;;;5038651;28;20249;-70
2022/03/30 12:02:59;;;;;;;1.33;1.08;;;9.40;99.90;;;;;;5037305;28;20554;-70
2022/03/30 12:05:27;;;;;;;1.73;1.30;;;9.50;99.90;;;;;;5037532;28;20209;-70
2022/03/30 12:07:56;;;;;;;2.60;1.20;;;9.60;99.90;;;;;;5037510;28;20236;-70
2022/03/30 12:10:30;;;;;;;1.98;1.60;;;9.70;99.90;;;;;;5038031;28;20225;-70
2022/03/30 12:12:59;;;;;;;4.85;1.70;;;9.70;99.90;;;;;;5038033;28;20707;-70
2022/03/30 12:15:27;;;;;;;2.67;2.33;;;9.80;99.90;;;;;;5037447;28;20803;-70
2022/03/30 12:17:58;;;;;;;1.33;1.25;;;9.80;99.90;;;;;;5037643;28;20229;-70
2022/03/30 12:20:28;;;;;;;1.40;1.30;;;9.90;99.90;;;;;;5038370;28;20225;-69
2022/03/30 12:22:59;;;;;;;1.38;1.27;;;10.00;99.90;;;;;;5038142;28;20284;-70
2022/03/30 12:25:31;;;;;;;1.38;0.80;;;10.00;99.90;;;;;;5037990;28;20304;-70
2022/03/30 12:28:00;;;;;;;1.15;1.05;;;9.90;99.90;;;;;;5038263;28;20220;-70
2022/03/30 12:30:31;;;;;;;2.30;1.50;;;10.00;99.90;;;;;;5038007;28;20756;-70
2022/03/30 12:33:00;;;;;;;3.45;1.95;;;10.00;99.90;;;;;;5037518;28;20260;-71
2022/03/30 12:35:31;;;;;;;1.40;1.40;;;10.10;99.90;;;;;;5040663;28;20207;-69
2022/03/30 12:38:08;;;;;;;2.80;1.10;;;10.20;99.90;;;;;;5041763;28;20360;-69
2022/03/30 12:40:40;;;;;;;1.92;1.83;;;10.10;99.90;;;;;;5041809;28;20217;-70
2022/03/30 12:43:08;;;;;;;2.03;1.35;;;10.10;99.90;;;;;;5041417;28;20215;-70
2022/03/30 12:45:53;;;;;;;1.83;1.73;;;10.10;99.90;;;;;;5040938;28;20255;-69
2022/03/30 12:48:27;;;;;;;1.63;0.95;;;10.20;99.90;;;;;;5041557;28;20201;-70
2022/03/30 12:50:58;;;;;;;0.80;0.80;;;10.30;99.90;;;;;;5041957;28;20790;-69
2022/03/30 12:53:31;;;;;;;1.73;1.30;;;10.30;99.90;;;;;;5040680;28;20871;-70
2022/03/30 12:56:13;;;;;;;2.90;1.55;;;10.30;99.90;;;;;;5041804;28;20288;-70
2022/03/30 12:58:52;;;;;;;1.55;1.20;;;10.40;99.90;;;;;;5042214;28;20563;-69
2022/03/30 13:01:31;;;;;;;2.08;1.33;;;10.40;99.90;;;;;;5042724;28;20877;-70
2022/03/30 13:04:00;;;;;;;1.07;0.97;;;10.50;99.90;;;;;;5041877;28;20816;-70
2022/03/30 13:06:28;;;;;;;0.80;0.80;;;10.60;99.90;;;;;;5042315;28;20455;-70
2022/03/30 13:09:06;;;;;;;3.65;1.08;;;10.60;99.90;;;;;;5041295;28;20210;-70
2022/03/30 13:11:42;;;;;;;1.47;1.27;;;10.60;99.90;;;;;;5041497;28;20217;-70
2022/03/30 13:14:15;;;;;;;2.03;1.37;;;10.70;99.90;;;;;;5041961;28;20579;-70
2022/03/30 13:16:53;;;;;;;1.10;1.10;;;10.70;99.90;;;;;;5043316;28;20445;-72
2022/03/30 13:19:23;;;;;;;1.70;1.43;;;10.80;99.90;;;;;;5042557;28;20540;-71
2022/03/30 13:21:53;;;;;;;1.10;1.03;;;10.70;99.90;;;;;;5042485;28;20510;-71
2022/03/30 13:24:28;;;;;;;1.60;1.50;;;10.60;99.90;;;;;;5021729;28;20545;-72